createdAt,value
2018-05-05T04:11:13.852Z,1003.6
2018-05-05T04:17:55.593Z,1003.6
2018-05-05T04:24:05.833Z,1003.6
2018-05-05T04:26:22.839Z,1003.6
2018-05-05T04:29:03.837Z,1003.7
2018-05-05T04:31:38.616Z,1003.6
2018-05-05T04:31:58.834Z,1003.7
2018-05-05T04:36:29.502Z,1003.7
2018-05-05T04:38:39.516Z,1003.7
2018-05-05T04:40:16.839Z,1003.7
2018-05-05T04:41:49.615Z,1003.7
2018-05-05T04:43:36.560Z,1003.8
2018-05-05T04:46:05.195Z,1003.8
2018-05-05T04:46:25.544Z,1003.8
2018-05-05T04:48:56.669Z,1003.8
2018-05-05T04:49:16.829Z,1003.8
2018-05-05T04:52:51.950Z,1003.8
2018-05-05T04:53:12.638Z,1003.8
2018-05-05T04:55:26.687Z,1003.8
2018-05-05T04:56:53.326Z,1003.9
2018-05-05T04:58:26.210Z,1003.9
2018-05-05T04:58:46.389Z,1003.9
2018-05-05T05:00:54.817Z,1003.9
2018-05-05T05:01:15.072Z,1004
2018-05-05T05:01:35.260Z,1003.9
2018-05-05T05:04:17.313Z,1004
2018-05-05T05:04:37.468Z,1004
2018-05-05T05:04:58.233Z,1004
2018-05-05T05:05:19.501Z,1004
2018-05-05T05:05:40.380Z,1004
2018-05-05T05:06:00.543Z,1004
2018-05-05T05:06:20.731Z,1004
2018-05-05T05:06:40.910Z,1004
2018-05-05T05:07:01.737Z,1003.9
2018-05-05T05:07:21.913Z,1003.9
2018-05-05T05:07:42.590Z,1003.9
2018-05-05T05:08:03.507Z,1003.9
2018-05-05T05:08:23.684Z,1003.9
2018-05-05T05:08:43.865Z,1003.9
2018-05-05T05:09:04.058Z,1003.9
2018-05-05T05:09:25.838Z,1003.9
2018-05-05T05:09:46.643Z,1003.9
2018-05-05T05:10:06.869Z,1003.9
2018-05-05T05:10:27.922Z,1003.9
2018-05-05T05:10:48.926Z,1003.9
2018-05-05T05:11:09.158Z,1003.9
2018-05-05T05:11:30.070Z,1003.9
2018-05-05T05:11:50.251Z,1003.9
2018-05-05T05:12:10.420Z,1003.8
2018-05-05T05:12:30.589Z,1003.9
2018-05-05T05:12:50.742Z,1003.9
2018-05-05T05:13:10.974Z,1003.9
2018-05-05T05:13:31.210Z,1003.9
2018-05-05T05:13:51.370Z,1003.9
2018-05-05T05:14:12.151Z,1003.9
2018-05-05T05:14:32.969Z,1003.9
2018-05-05T05:14:53.092Z,1003.9
2018-05-05T05:15:14.517Z,1003.9
2018-05-05T05:15:35.442Z,1003.9
2018-05-05T05:15:55.637Z,1004
2018-05-05T05:16:16.482Z,1004
2018-05-05T05:16:36.674Z,1004
2018-05-05T05:16:56.927Z,1004
2018-05-05T05:17:17.116Z,1004
2018-05-05T05:17:37.332Z,1004
2018-05-05T05:17:57.537Z,1004
2018-05-05T05:18:18.483Z,1004
2018-05-05T05:18:38.670Z,1004
2018-05-05T05:18:58.852Z,1004
2018-05-05T05:19:19.534Z,1004
2018-05-05T05:19:39.692Z,1004
2018-05-05T05:20:00.640Z,1004
2018-05-05T05:20:20.824Z,1004
2018-05-05T05:20:41.017Z,1004
2018-05-05T05:21:01.199Z,1004
2018-05-05T05:21:21.365Z,1004
2018-05-05T05:21:41.565Z,1004
2018-05-05T05:22:04.176Z,1004
2018-05-05T05:22:24.342Z,1004
2018-05-05T05:22:44.515Z,1004
2018-05-05T05:23:04.692Z,1004
2018-05-05T05:23:25.394Z,1004
2018-05-05T05:23:45.617Z,1004
2018-05-05T05:24:05.787Z,1004
2018-05-05T05:24:26.491Z,1004
2018-05-05T05:24:46.775Z,1004
2018-05-05T05:25:06.874Z,1004
2018-05-05T05:25:27.061Z,1004
2018-05-05T05:25:47.249Z,1004
2018-05-05T05:26:07.470Z,1004
2018-05-05T05:26:27.716Z,1004
2018-05-05T05:26:47.962Z,1004
2018-05-05T05:27:08.224Z,1004
2018-05-05T05:27:28.514Z,1004
2018-05-05T05:27:48.776Z,1004
2018-05-05T05:28:09.011Z,1004
2018-05-05T05:28:30.373Z,1004
2018-05-05T05:28:50.719Z,1004
2018-05-05T05:29:10.895Z,1004
2018-05-05T05:29:31.187Z,1004
2018-05-05T05:29:51.374Z,1004
2018-05-05T05:30:11.662Z,1004
2018-05-05T05:30:32.599Z,1004
2018-05-05T05:30:52.845Z,1004
2018-05-05T05:31:13.922Z,1004
2018-05-05T05:31:34.165Z,1004
2018-05-05T05:31:54.391Z,1004.1
2018-05-05T05:32:14.573Z,1004.1
2018-05-05T05:32:35.620Z,1004.1
2018-05-05T05:32:56.670Z,1004.1
2018-05-05T05:33:16.854Z,1004.1
2018-05-05T05:33:37.220Z,1004.1
2018-05-05T05:33:57.498Z,1004.1
2018-05-05T05:34:17.694Z,1004.1
2018-05-05T05:34:38.646Z,1004.1
2018-05-05T05:34:58.934Z,1004.1
2018-05-05T05:35:19.146Z,1004.1
2018-05-05T05:35:39.336Z,1004.1
2018-05-05T05:36:00.032Z,1004.2
2018-05-05T05:36:20.312Z,1004.1
2018-05-05T05:36:40.477Z,1004.1
2018-05-05T05:37:01.526Z,1004.1
2018-05-05T05:37:21.835Z,1004.1
2018-05-05T05:37:42.051Z,1004.1
2018-05-05T05:38:02.223Z,1004.1
2018-05-05T05:38:22.440Z,1004.1
2018-05-05T05:38:42.638Z,1004.1
2018-05-05T05:39:02.817Z,1004.2
2018-05-05T05:39:23.070Z,1004.1
2018-05-05T05:39:43.237Z,1004.1
2018-05-05T05:40:03.441Z,1004.2
2018-05-05T05:40:23.748Z,1004.2
2018-05-05T05:40:43.935Z,1004.1
2018-05-05T05:41:04.090Z,1004.2
2018-05-05T05:41:24.278Z,1004.2
2018-05-05T05:41:44.451Z,1004.2
2018-05-05T05:42:04.722Z,1004.2
2018-05-05T05:42:24.952Z,1004.2
2018-05-05T05:42:45.191Z,1004.1
2018-05-05T05:43:05.392Z,1004.1
2018-05-05T05:43:25.581Z,1004.1
2018-05-05T05:43:45.774Z,1004.1
2018-05-05T05:44:06.544Z,1004.2
2018-05-05T05:44:26.888Z,1004.1
2018-05-05T05:44:47.205Z,1004.1
2018-05-05T05:45:07.395Z,1004.1
2018-05-05T05:45:27.738Z,1004.1
2018-05-05T05:45:48.038Z,1004.1
2018-05-05T05:46:08.854Z,1004.1
2018-05-05T05:46:29.979Z,1004.1
2018-05-05T05:46:50.146Z,1004.1
2018-05-05T05:47:10.350Z,1004.2
2018-05-05T05:47:30.554Z,1004.1
2018-05-05T05:47:50.748Z,1004.2
2018-05-05T05:48:11.125Z,1004.2
2018-05-05T05:48:31.415Z,1004.2
2018-05-05T05:48:52.577Z,1004.1
2018-05-05T05:49:12.771Z,1004.2
2018-05-05T05:49:33.563Z,1004.2
2018-05-05T05:49:54.522Z,1004.2
2018-05-05T05:50:14.734Z,1004.2
2018-05-05T05:50:34.928Z,1004.2
2018-05-05T05:50:55.955Z,1004.2
2018-05-05T05:51:16.611Z,1004.2
2018-05-05T05:51:36.818Z,1004.2
2018-05-05T05:51:57.171Z,1004.2
2018-05-05T05:52:21.208Z,1004.2
2018-05-05T05:52:41.384Z,1004.2
2018-05-05T05:53:01.615Z,1004.2
2018-05-05T05:53:22.545Z,1004.2
2018-05-05T05:53:42.733Z,1004.2
2018-05-05T05:54:03.874Z,1004.2
2018-05-05T05:54:24.073Z,1004.2
2018-05-05T05:54:44.294Z,1004.2
2018-05-05T05:55:04.469Z,1004.2
2018-05-05T05:55:24.693Z,1004.2
2018-05-05T05:55:44.967Z,1004.2
2018-05-05T05:56:05.889Z,1004.2
2018-05-05T05:56:26.074Z,1004.3
2018-05-05T05:56:46.225Z,1004.2
2018-05-05T05:57:06.392Z,1004.2
2018-05-05T05:57:26.590Z,1004.2
2018-05-05T05:57:46.783Z,1004.2
2018-05-05T05:58:06.943Z,1004.2
2018-05-05T05:58:27.136Z,1004.2
2018-05-05T05:58:47.305Z,1004.2
2018-05-05T05:59:07.473Z,1004.2
2018-05-05T05:59:27.634Z,1004.2
2018-05-05T05:59:48.660Z,1004.2
2018-05-05T06:00:09.103Z,1004.2
2018-05-05T06:00:30.287Z,1004.2
2018-05-05T06:00:51.402Z,1004.2
2018-05-05T06:01:11.586Z,1004.2
2018-05-05T06:01:31.764Z,1004.2
2018-05-05T06:01:51.977Z,1004.2
2018-05-05T06:02:12.203Z,1004.2
2018-05-05T06:02:32.353Z,1004.2
2018-05-05T06:02:53.176Z,1004.3
2018-05-05T06:03:13.382Z,1004.2
2018-05-05T06:03:34.470Z,1004.2
2018-05-05T06:03:54.773Z,1004.2
2018-05-05T06:04:15.893Z,1004.3
2018-05-05T06:04:36.033Z,1004.2
2018-05-05T06:04:56.269Z,1004.3
2018-05-05T06:05:16.480Z,1004.3
2018-05-05T06:05:37.176Z,1004.2
2018-05-05T06:05:57.346Z,1004.3
2018-05-05T06:06:17.524Z,1004.2
2018-05-05T06:06:38.579Z,1004.3
2018-05-05T06:06:58.779Z,1004.3
2018-05-05T06:07:18.950Z,1004.2
2018-05-05T06:07:39.108Z,1004.3
2018-05-05T06:07:59.342Z,1004.3
2018-05-05T06:08:19.516Z,1004.3
2018-05-05T06:08:40.546Z,1004.3
2018-05-05T06:09:02.670Z,1004.3
2018-05-05T06:09:22.871Z,1004.3
2018-05-05T06:09:43.677Z,1004.3
2018-05-05T06:10:03.907Z,1004.3
2018-05-05T06:10:24.116Z,1004.3
2018-05-05T06:10:44.308Z,1004.3
2018-05-05T06:11:04.521Z,1004.3
2018-05-05T06:11:25.859Z,1004.3
2018-05-05T06:11:46.053Z,1004.3
2018-05-05T06:12:06.257Z,1004.4
2018-05-05T06:12:28.126Z,1004.3
2018-05-05T06:12:48.290Z,1004.3
2018-05-05T06:13:08.966Z,1004.3
2018-05-05T06:13:29.215Z,1004.3
2018-05-05T06:13:49.443Z,1004.3
2018-05-05T06:14:09.640Z,1004.3
2018-05-05T06:14:29.836Z,1004.3
2018-05-05T06:14:50.714Z,1004.4
2018-05-05T06:15:11.530Z,1004.3
2018-05-05T06:15:31.712Z,1004.4
2018-05-05T06:15:51.895Z,1004.4
2018-05-05T06:16:12.166Z,1004.4
2018-05-05T06:16:32.338Z,1004.4
2018-05-05T06:16:52.520Z,1004.4
2018-05-05T06:17:13.396Z,1004.4
2018-05-05T06:17:34.371Z,1004.4
2018-05-05T06:17:54.570Z,1004.4
2018-05-05T06:18:14.813Z,1004.4
2018-05-05T06:18:35.036Z,1004.4
2018-05-05T06:18:55.242Z,1004.4
2018-05-05T06:19:16.224Z,1004.4
2018-05-05T06:19:36.387Z,1004.4
2018-05-05T06:19:57.417Z,1004.4
2018-05-05T06:20:18.132Z,1004.4
2018-05-05T06:20:39.736Z,1004.4
2018-05-05T06:20:59.908Z,1004.4
2018-05-05T06:21:20.933Z,1004.4
2018-05-05T06:21:41.112Z,1004.4
2018-05-05T06:22:01.455Z,1004.5
2018-05-05T06:22:22.768Z,1004.5
2018-05-05T06:22:42.965Z,1004.5
2018-05-05T06:23:03.152Z,1004.5
2018-05-05T06:23:23.332Z,1004.5
2018-05-05T06:23:43.511Z,1004.5
2018-05-05T06:24:05.063Z,1004.5
2018-05-05T06:24:25.258Z,1004.5
2018-05-05T06:24:45.436Z,1004.5
2018-05-05T06:25:05.655Z,1004.5
2018-05-05T06:25:26.343Z,1004.5
2018-05-05T06:25:46.923Z,1004.5
2018-05-05T06:26:07.655Z,1004.5
2018-05-05T06:26:27.940Z,1004.5
2018-05-05T06:26:51.664Z,1004.5
2018-05-05T06:27:12.083Z,1004.5
2018-05-05T06:27:32.223Z,1004.5
2018-05-05T06:27:53.641Z,1004.5
2018-05-05T06:28:13.907Z,1004.5
2018-05-05T06:28:34.640Z,1004.6
2018-05-05T06:28:55.203Z,1004.6
2018-05-05T06:29:15.462Z,1004.5
2018-05-05T06:29:37.795Z,1004.5
2018-05-05T06:29:58.213Z,1004.5
2018-05-05T06:30:18.537Z,1004.5
2018-05-05T06:30:39.769Z,1004.5
2018-05-05T06:30:59.974Z,1004.6
2018-05-05T06:31:20.138Z,1004.5
2018-05-05T06:31:40.452Z,1004.6
2018-05-05T06:32:00.637Z,1004.6
2018-05-05T06:32:21.722Z,1004.5
2018-05-05T06:32:42.935Z,1004.5
2018-05-05T06:33:03.517Z,1004.5
2018-05-05T06:33:24.972Z,1004.6
2018-05-05T06:33:45.177Z,1004.6
2018-05-05T06:34:05.331Z,1004.5
2018-05-05T06:34:26.446Z,1004.6
2018-05-05T06:34:46.669Z,1004.6
2018-05-05T06:35:06.831Z,1004.6
2018-05-05T06:35:27.023Z,1004.6
2018-05-05T06:35:47.184Z,1004.6
2018-05-05T06:36:08.189Z,1004.6
2018-05-05T06:36:28.391Z,1004.6
2018-05-05T06:36:48.594Z,1004.6
2018-05-05T06:37:08.821Z,1004.6
2018-05-05T06:37:28.977Z,1004.6
2018-05-05T06:37:49.171Z,1004.5
2018-05-05T06:38:10.628Z,1004.6
2018-05-05T06:38:30.848Z,1004.6
2018-05-05T06:38:51.044Z,1004.6
2018-05-05T06:39:11.220Z,1004.6
2018-05-05T06:39:31.406Z,1004.6
2018-05-05T06:39:51.594Z,1004.5
2018-05-05T06:40:12.569Z,1004.6
2018-05-05T06:40:32.746Z,1004.5
2018-05-05T06:40:54.025Z,1004.6
2018-05-05T06:41:14.218Z,1004.6
2018-05-05T06:41:34.473Z,1004.5
2018-05-05T06:41:55.404Z,1004.5
2018-05-05T06:42:15.606Z,1004.5
2018-05-05T06:42:35.773Z,1004.5
2018-05-05T06:42:55.972Z,1004.5
2018-05-05T06:43:16.296Z,1004.5
2018-05-05T06:43:36.402Z,1004.5
2018-05-05T06:43:56.602Z,1004.6
2018-05-05T06:44:16.790Z,1004.6
2018-05-05T06:44:36.964Z,1004.6
2018-05-05T06:44:57.201Z,1004.6
2018-05-05T06:45:17.360Z,1004.5
2018-05-05T06:45:37.547Z,1004.6
2018-05-05T06:45:57.753Z,1004.6
2018-05-05T06:46:17.930Z,1004.6
2018-05-05T06:46:39.069Z,1004.6
2018-05-05T06:46:59.301Z,1004.5
2018-05-05T06:47:19.488Z,1004.5
2018-05-05T06:47:39.716Z,1004.6
2018-05-05T06:48:00.733Z,1004.6
2018-05-05T06:48:20.908Z,1004.6
2018-05-05T06:48:41.884Z,1004.6
2018-05-05T06:49:02.099Z,1004.5
2018-05-05T06:49:22.288Z,1004.6
2018-05-05T06:49:43.417Z,1004.6
2018-05-05T06:50:04.809Z,1004.6
2018-05-05T06:50:24.982Z,1004.6
2018-05-05T06:50:45.155Z,1004.6
2018-05-05T06:51:05.346Z,1004.6
2018-05-05T06:51:26.866Z,1004.6
2018-05-05T06:51:47.736Z,1004.6
2018-05-05T06:52:08.334Z,1004.6
2018-05-05T06:52:28.512Z,1004.6
2018-05-05T06:52:48.974Z,1004.6
2018-05-05T06:53:10.058Z,1004.6
2018-05-05T06:53:30.264Z,1004.6
2018-05-05T06:53:50.453Z,1004.6
2018-05-05T06:54:10.661Z,1004.6
2018-05-05T06:54:30.837Z,1004.6
2018-05-05T06:54:51.007Z,1004.6
2018-05-05T06:55:11.188Z,1004.6
2018-05-05T06:55:31.410Z,1004.6
2018-05-05T06:55:51.626Z,1004.7
2018-05-05T06:56:12.600Z,1004.6
2018-05-05T06:56:32.761Z,1004.6
2018-05-05T06:56:53.515Z,1004.6
2018-05-05T06:57:13.781Z,1004.6
2018-05-05T06:57:35.098Z,1004.7
2018-05-05T06:57:55.981Z,1004.7
2018-05-05T06:58:16.185Z,1004.7
2018-05-05T06:58:36.373Z,1004.7
2018-05-05T06:58:56.570Z,1004.7
2018-05-05T06:59:16.763Z,1004.7
2018-05-05T06:59:36.963Z,1004.6
2018-05-05T06:59:58.208Z,1004.7
2018-05-05T07:00:18.426Z,1004.7
2018-05-05T07:00:38.586Z,1004.7
2018-05-05T07:00:58.821Z,1004.7
2018-05-05T07:01:19.885Z,1004.7
2018-05-05T07:01:40.054Z,1004.7
2018-05-05T07:02:00.246Z,1004.7
2018-05-05T07:02:20.989Z,1004.7
2018-05-05T07:02:41.742Z,1004.7
2018-05-05T07:03:02.741Z,1004.7
2018-05-05T07:03:23.061Z,1004.7
2018-05-05T07:03:44.245Z,1004.7
2018-05-05T07:04:05.281Z,1004.7
2018-05-05T07:04:25.654Z,1004.7
2018-05-05T07:04:45.823Z,1004.7
2018-05-05T07:05:06.605Z,1004.7
2018-05-05T07:05:27.599Z,1004.7
2018-05-05T07:05:47.737Z,1004.7
2018-05-05T07:06:08.756Z,1004.7
2018-05-05T07:06:29.584Z,1004.7
2018-05-05T07:06:49.771Z,1004.8
2018-05-05T07:07:09.957Z,1004.7
2018-05-05T07:07:30.659Z,1004.8
2018-05-05T07:07:51.482Z,1004.7
2018-05-05T07:08:11.672Z,1004.8
2018-05-05T07:08:31.849Z,1004.8
2018-05-05T07:08:52.030Z,1004.8
2018-05-05T07:09:12.243Z,1004.8
2018-05-05T07:09:33.264Z,1004.8
2018-05-05T07:09:53.452Z,1004.8
2018-05-05T07:10:13.647Z,1004.8
2018-05-05T07:10:33.856Z,1004.8
2018-05-05T07:10:54.067Z,1004.8
2018-05-05T07:11:14.259Z,1004.8
2018-05-05T07:11:35.252Z,1004.8
2018-05-05T07:11:55.437Z,1004.8
2018-05-05T07:12:16.143Z,1004.9
2018-05-05T07:12:36.414Z,1004.8
2018-05-05T07:12:56.603Z,1004.8
2018-05-05T07:13:16.786Z,1004.8
2018-05-05T07:13:37.006Z,1004.8
2018-05-05T07:13:58.113Z,1004.8
2018-05-05T07:14:19.212Z,1004.8
2018-05-05T07:14:39.376Z,1004.8
2018-05-05T07:14:59.572Z,1004.8
2018-05-05T07:15:19.769Z,1004.8
2018-05-05T07:15:40.133Z,1004.8
2018-05-05T07:16:00.158Z,1004.8
2018-05-05T07:16:21.077Z,1004.8
2018-05-05T07:16:42.146Z,1004.8
2018-05-05T07:17:02.411Z,1004.8
2018-05-05T07:17:22.586Z,1004.8
2018-05-05T07:17:42.745Z,1004.8
2018-05-05T07:18:03.517Z,1004.8
2018-05-05T07:18:23.721Z,1004.8
2018-05-05T07:18:43.901Z,1004.8
2018-05-05T07:19:04.753Z,1004.8
2018-05-05T07:19:24.942Z,1004.8
2018-05-05T07:19:45.129Z,1004.8
2018-05-05T07:20:06.096Z,1004.8
2018-05-05T07:20:27.115Z,1004.8
2018-05-05T07:20:47.307Z,1004.8
2018-05-05T07:21:07.505Z,1004.8
2018-05-05T07:21:27.755Z,1004.8
2018-05-05T07:21:48.449Z,1004.8
2018-05-05T07:22:08.676Z,1004.8
2018-05-05T07:22:28.890Z,1004.8
2018-05-05T07:22:49.033Z,1004.8
2018-05-05T07:23:09.219Z,1004.8
2018-05-05T07:23:29.416Z,1004.8
2018-05-05T07:23:49.596Z,1004.8
2018-05-05T07:24:11.323Z,1004.8
2018-05-05T07:24:31.583Z,1004.8
2018-05-05T07:24:51.813Z,1004.8
2018-05-05T07:25:12.016Z,1004.8
2018-05-05T07:25:32.216Z,1004.8
2018-05-05T07:25:52.440Z,1004.8
2018-05-05T07:26:13.270Z,1004.9
2018-05-05T07:26:33.500Z,1004.8
2018-05-05T07:26:54.177Z,1004.8
2018-05-05T07:27:14.375Z,1004.8
2018-05-05T07:27:34.570Z,1004.8
2018-05-05T07:27:55.681Z,1004.8
2018-05-05T07:28:15.841Z,1004.9
2018-05-05T07:28:36.018Z,1004.8
2018-05-05T07:28:56.226Z,1004.8
2018-05-05T07:29:16.455Z,1004.9
2018-05-05T07:29:36.624Z,1004.9
2018-05-05T07:29:56.797Z,1004.9
2018-05-05T07:30:17.034Z,1004.9
2018-05-05T07:30:37.268Z,1004.9
2018-05-05T07:30:57.503Z,1004.9
2018-05-05T07:31:17.670Z,1004.9
2018-05-05T07:31:37.840Z,1004.9
2018-05-05T07:31:58.095Z,1004.9
2018-05-05T07:32:18.317Z,1004.9
2018-05-05T07:32:39.103Z,1004.9
2018-05-05T07:32:59.292Z,1005
2018-05-05T07:33:19.531Z,1004.9
2018-05-05T07:33:39.752Z,1004.9
2018-05-05T07:33:59.923Z,1004.9
2018-05-05T07:34:20.110Z,1004.9
2018-05-05T07:34:40.398Z,1004.9
2018-05-05T07:35:00.529Z,1004.9
2018-05-05T07:35:20.745Z,1004.9
2018-05-05T07:35:40.955Z,1004.9
2018-05-05T07:36:01.728Z,1004.9
2018-05-05T07:36:21.968Z,1004.9
2018-05-05T07:36:42.179Z,1004.9
2018-05-05T07:37:02.341Z,1004.9
2018-05-05T07:37:23.148Z,1004.9
2018-05-05T07:37:43.321Z,1004.9
2018-05-05T07:38:03.533Z,1004.9
2018-05-05T07:38:23.743Z,1004.9
2018-05-05T07:38:44.748Z,1004.9
2018-05-05T07:39:04.980Z,1004.9
2018-05-05T07:39:25.165Z,1004.9
2018-05-05T07:39:45.338Z,1004.9
2018-05-05T07:40:06.087Z,1004.9
2018-05-05T07:40:26.264Z,1005
2018-05-05T07:40:46.464Z,1004.9
2018-05-05T07:41:07.830Z,1004.9
2018-05-05T07:41:28.620Z,1005
2018-05-05T07:41:49.333Z,1005
2018-05-05T07:42:09.517Z,1005
2018-05-05T07:42:29.751Z,1004.9
2018-05-05T07:42:49.906Z,1004.9
2018-05-05T07:43:10.076Z,1004.9
2018-05-05T07:43:30.406Z,1005
2018-05-05T07:43:51.268Z,1004.9
2018-05-05T07:44:12.143Z,1004.9
2018-05-05T07:44:33.303Z,1004.9
2018-05-05T07:44:54.233Z,1004.9
2018-05-05T07:45:14.519Z,1005
2018-05-05T07:45:34.691Z,1004.9
2018-05-05T07:45:55.637Z,1005
2018-05-05T07:46:15.846Z,1004.9
2018-05-05T07:46:36.085Z,1004.9
2018-05-05T07:46:56.262Z,1004.9
2018-05-05T07:47:16.510Z,1004.9
2018-05-05T07:47:36.713Z,1005
2018-05-05T07:47:57.007Z,1004.9
2018-05-05T07:48:17.206Z,1005
2018-05-05T07:48:37.436Z,1005
2018-05-05T07:48:58.623Z,1005
2018-05-05T07:49:18.864Z,1004.9
2018-05-05T07:49:39.111Z,1004.9
2018-05-05T07:49:59.552Z,1004.9
2018-05-05T07:50:19.719Z,1004.9
2018-05-05T07:50:39.958Z,1005
2018-05-05T07:51:00.172Z,1004.9
2018-05-05T07:51:20.456Z,1004.9
2018-05-05T07:51:40.639Z,1005
2018-05-05T07:52:00.818Z,1004.9
2018-05-05T07:52:21.071Z,1004.9
2018-05-05T07:52:41.315Z,1004.9
2018-05-05T07:53:01.481Z,1004.9
2018-05-05T07:53:22.584Z,1005
2018-05-05T07:53:43.549Z,1004.9
2018-05-05T07:54:03.739Z,1004.9
2018-05-05T07:54:23.942Z,1004.9
2018-05-05T07:54:44.120Z,1004.9
2018-05-05T07:55:04.304Z,1004.9
2018-05-05T07:55:24.523Z,1004.9
2018-05-05T07:55:44.974Z,1004.9
2018-05-05T07:56:05.336Z,1004.9
2018-05-05T07:56:26.860Z,1004.9
2018-05-05T07:56:47.080Z,1004.9
2018-05-05T07:57:08.140Z,1004.9
2018-05-05T07:57:29.900Z,1004.9
2018-05-05T07:57:50.073Z,1004.9
2018-05-05T07:58:11.153Z,1004.9
2018-05-05T07:58:31.469Z,1004.9
2018-05-05T07:58:51.929Z,1004.9
2018-05-05T07:59:12.163Z,1004.9
2018-05-05T07:59:32.445Z,1004.9
2018-05-05T07:59:52.624Z,1004.9
2018-05-05T08:00:14.062Z,1004.9
2018-05-05T08:00:34.940Z,1004.9
2018-05-05T08:00:55.083Z,1004.9
2018-05-05T08:01:15.290Z,1004.9
2018-05-05T08:01:35.705Z,1004.8
2018-05-05T08:01:55.996Z,1004.9
2018-05-05T08:02:16.341Z,1004.9
2018-05-05T08:02:36.592Z,1004.9
2018-05-05T08:02:56.787Z,1004.9
2018-05-05T08:03:16.988Z,1004.9
2018-05-05T08:03:37.706Z,1004.9
2018-05-05T08:03:58.125Z,1004.9
2018-05-05T08:04:18.393Z,1004.9
2018-05-05T08:04:39.310Z,1004.9
2018-05-05T08:05:00.437Z,1004.9
2018-05-05T08:05:21.425Z,1004.8
2018-05-05T08:05:41.648Z,1004.8
2018-05-05T08:06:02.483Z,1004.8
2018-05-05T08:06:22.763Z,1004.8
2018-05-05T08:06:43.032Z,1004.8
2018-05-05T08:07:03.234Z,1004.8
2018-05-05T08:07:23.386Z,1004.8
2018-05-05T08:07:43.573Z,1004.8
2018-05-05T08:08:03.791Z,1004.8
2018-05-05T08:08:24.846Z,1004.8
2018-05-05T08:08:45.097Z,1004.8
2018-05-05T08:09:05.315Z,1004.8
2018-05-05T08:09:26.414Z,1004.8
2018-05-05T08:09:46.665Z,1004.8
2018-05-05T08:10:06.821Z,1004.8
2018-05-05T08:10:27.020Z,1004.8
2018-05-05T08:10:47.281Z,1004.8
2018-05-05T08:11:07.676Z,1004.8
2018-05-05T08:11:27.926Z,1004.8
2018-05-05T08:11:48.112Z,1004.7
2018-05-05T08:12:08.300Z,1004.7
2018-05-05T08:12:29.275Z,1004.8
2018-05-05T08:12:50.668Z,1004.7
2018-05-05T08:13:10.876Z,1004.7
2018-05-05T08:13:31.061Z,1004.7
2018-05-05T08:13:51.281Z,1004.8
2018-05-05T08:14:11.474Z,1004.7
2018-05-05T08:14:32.190Z,1004.7
2018-05-05T08:14:52.471Z,1004.7
2018-05-05T08:15:12.650Z,1004.8
2018-05-05T08:15:33.476Z,1004.7
2018-05-05T08:15:53.662Z,1004.8
2018-05-05T08:16:13.911Z,1004.8
2018-05-05T08:16:34.106Z,1004.8
2018-05-05T08:16:54.848Z,1004.8
2018-05-05T08:17:15.096Z,1004.8
2018-05-05T08:17:35.271Z,1004.8
2018-05-05T08:17:55.499Z,1004.8
2018-05-05T08:18:15.713Z,1004.8
2018-05-05T08:18:35.916Z,1004.8
2018-05-05T08:18:56.924Z,1004.8
2018-05-05T08:19:17.913Z,1004.8
2018-05-05T08:19:38.674Z,1004.8
2018-05-05T08:20:00.325Z,1004.8
2018-05-05T08:20:21.202Z,1004.8
2018-05-05T08:20:41.428Z,1004.8
2018-05-05T08:21:02.125Z,1004.8
2018-05-05T08:21:23.239Z,1004.8
2018-05-05T08:21:43.484Z,1004.8
2018-05-05T08:22:03.768Z,1004.8
2018-05-05T08:22:24.059Z,1004.8
2018-05-05T08:22:44.838Z,1004.8
2018-05-05T08:23:05.026Z,1004.7
2018-05-05T08:23:25.229Z,1004.7
2018-05-05T08:23:45.435Z,1004.8
2018-05-05T08:24:05.691Z,1004.7
2018-05-05T08:24:26.913Z,1004.8
2018-05-05T08:24:47.142Z,1004.7
2018-05-05T08:25:07.400Z,1004.7
2018-05-05T08:25:27.666Z,1004.7
2018-05-05T08:25:47.921Z,1004.8
2018-05-05T08:26:08.116Z,1004.7
2018-05-05T08:26:28.895Z,1004.7
2018-05-05T08:26:49.128Z,1004.7
2018-05-05T08:27:09.352Z,1004.7
2018-05-05T08:27:29.609Z,1004.7
2018-05-05T08:27:49.857Z,1004.7
2018-05-05T08:28:10.691Z,1004.7
2018-05-05T08:28:30.872Z,1004.7
2018-05-05T08:28:51.103Z,1004.7
2018-05-05T08:29:11.736Z,1004.7
2018-05-05T08:29:32.041Z,1004.7
2018-05-05T08:29:52.343Z,1004.7
2018-05-05T08:30:12.593Z,1004.7
2018-05-05T08:30:32.951Z,1004.7
2018-05-05T08:30:53.162Z,1004.8
2018-05-05T08:31:13.424Z,1004.8
2018-05-05T08:31:34.327Z,1004.7
2018-05-05T08:31:54.467Z,1004.7
2018-05-05T08:32:14.682Z,1004.7
2018-05-05T08:32:34.924Z,1004.7
2018-05-05T08:32:55.190Z,1004.7
2018-05-05T08:33:15.859Z,1004.8
2018-05-05T08:33:36.198Z,1004.7
2018-05-05T08:33:56.379Z,1004.7
2018-05-05T08:34:16.654Z,1004.7
2018-05-05T08:34:37.941Z,1004.7
2018-05-05T08:34:58.976Z,1004.8
2018-05-05T08:35:20.149Z,1004.8
2018-05-05T08:35:40.971Z,1004.7
2018-05-05T08:36:01.224Z,1004.7
2018-05-05T08:36:21.628Z,1004.7
2018-05-05T08:36:41.842Z,1004.7
2018-05-05T08:37:02.193Z,1004.7
2018-05-05T08:37:22.458Z,1004.7
2018-05-05T08:37:42.702Z,1004.7
2018-05-05T08:38:02.920Z,1004.7
2018-05-05T08:38:24.097Z,1004.7
2018-05-05T08:38:45.475Z,1004.7
2018-05-05T08:39:06.449Z,1004.7
2018-05-05T08:39:28.282Z,1004.7
2018-05-05T08:39:48.891Z,1004.7
2018-05-05T08:40:09.112Z,1004.7
2018-05-05T08:40:30.357Z,1004.7
2018-05-05T08:40:51.664Z,1004.7
2018-05-05T08:41:12.746Z,1004.7
2018-05-05T08:41:34.321Z,1004.7
2018-05-05T08:41:54.569Z,1004.7
2018-05-05T08:42:15.014Z,1004.7
2018-05-05T08:42:36.644Z,1004.7
2018-05-05T08:42:57.016Z,1004.8
2018-05-05T08:43:19.055Z,1004.8
2018-05-05T08:43:40.608Z,1004.7
2018-05-05T08:44:02.415Z,1004.7
2018-05-05T08:44:23.428Z,1004.8
2018-05-05T08:44:43.661Z,1004.7
2018-05-05T08:45:03.906Z,1004.7
2018-05-05T08:45:24.760Z,1004.8
2018-05-05T08:45:45.045Z,1004.7
2018-05-05T08:46:05.276Z,1004.7
2018-05-05T08:46:25.876Z,1004.7
2018-05-05T08:46:46.188Z,1004.7
2018-05-05T08:47:06.454Z,1004.7
2018-05-05T08:47:27.127Z,1004.7
2018-05-05T08:47:48.949Z,1004.7
2018-05-05T08:48:09.155Z,1004.7
2018-05-05T08:48:29.381Z,1004.7
2018-05-05T08:48:49.627Z,1004.7
2018-05-05T08:49:09.964Z,1004.7
2018-05-05T08:49:30.229Z,1004.7
2018-05-05T08:49:51.541Z,1004.7
2018-05-05T08:50:11.886Z,1004.7
2018-05-05T08:50:32.097Z,1004.6
2018-05-05T08:50:53.274Z,1004.7
2018-05-05T08:51:13.626Z,1004.7
2018-05-05T08:51:33.866Z,1004.7
2018-05-05T08:51:54.990Z,1004.7
2018-05-05T08:52:15.294Z,1004.7
2018-05-05T08:52:35.595Z,1004.7
2018-05-05T08:52:55.794Z,1004.7
2018-05-05T08:53:16.120Z,1004.7
2018-05-05T08:53:37.894Z,1004.6
2018-05-05T08:54:01.669Z,1004.7
2018-05-05T08:54:22.321Z,1004.7
2018-05-05T08:54:42.578Z,1004.7
2018-05-05T08:55:03.328Z,1004.7
2018-05-05T08:55:24.294Z,1004.7
2018-05-05T08:55:45.268Z,1004.7
2018-05-05T08:56:05.578Z,1004.7
2018-05-05T08:56:25.931Z,1004.7
2018-05-05T08:56:46.905Z,1004.7
2018-05-05T08:57:07.160Z,1004.7
2018-05-05T08:57:27.367Z,1004.7
2018-05-05T08:57:47.691Z,1004.7
2018-05-05T08:58:08.826Z,1004.7
2018-05-05T08:58:29.112Z,1004.7
2018-05-05T08:58:49.377Z,1004.7
2018-05-05T08:59:10.531Z,1004.7
2018-05-05T08:59:31.497Z,1004.7
2018-05-05T08:59:52.329Z,1004.7
2018-05-05T09:00:12.905Z,1004.7
2018-05-05T09:00:33.268Z,1004.7
2018-05-05T09:00:53.650Z,1004.7
2018-05-05T09:01:13.982Z,1004.7
2018-05-05T09:01:34.628Z,1004.7
2018-05-05T09:01:55.062Z,1004.7
2018-05-05T09:02:15.992Z,1004.7
2018-05-05T09:02:36.269Z,1004.7
2018-05-05T09:02:56.802Z,1004.7
2018-05-05T09:03:17.214Z,1004.7
2018-05-05T09:03:38.622Z,1004.7
2018-05-05T09:03:59.109Z,1004.7
2018-05-05T09:04:19.483Z,1004.7
2018-05-05T09:04:40.316Z,1004.7
2018-05-05T09:05:01.535Z,1004.7
2018-05-05T09:05:22.180Z,1004.6
2018-05-05T09:05:42.505Z,1004.6
2018-05-05T09:06:03.849Z,1004.6
2018-05-05T09:06:24.382Z,1004.6
2018-05-05T09:06:44.677Z,1004.7
2018-05-05T09:07:05.126Z,1004.6
2018-05-05T09:07:25.964Z,1004.7
2018-05-05T09:07:46.432Z,1004.7
2018-05-05T09:08:07.054Z,1004.7
2018-05-05T09:08:27.439Z,1004.7
2018-05-05T09:08:47.792Z,1004.7
2018-05-05T09:09:09.057Z,1004.7
2018-05-05T09:09:29.692Z,1004.6
2018-05-05T09:09:49.964Z,1004.6
2018-05-05T09:10:10.187Z,1004.6
2018-05-05T09:10:30.906Z,1004.6
2018-05-05T09:10:51.302Z,1004.6
2018-05-05T09:11:11.933Z,1004.6
2018-05-05T09:11:32.415Z,1004.6
2018-05-05T09:11:53.858Z,1004.6
2018-05-05T09:12:14.463Z,1004.6
2018-05-05T09:12:34.956Z,1004.6